Peckham, Oklahoma
Current Conditions -  °F | °C
As of 9:53 AM on Saturday 25 Oct 2014 (Local Time) from KPNC Reporting Station
Clear Clear  
Wind Chill: 68°   Ceiling: Unl
Heat Index: 68°   Visibility: 8mi
Dew Point: 61°   Wind: 5mph
Humidity: 78%   Direction: 200°SSW
Pressure: 30.08"   Gusts: NA
Location:  36.9105°N, 97.0487°W
Report Text: KPNC 251453Z AUTO 20004KT 8SM CLR 20/16 A3008 RMK AO2 SLP175 T02000161 53012
Loading
Personal Weather Stations






























Interactive Weather Map
Tropical Storm Tracking
New forecast layout! Learn more

10-Day Weather Forecast

Advertisements
Track Severe Weather on mobile